sensor_id;sensor_type;location;lat;lon;timestamp;P1;durP1;ratioP1;P2;durP2;ratioP2
67904;SDS011;54709;43.614;1.576;2023-04-23T00:00:19;15.07;;;11.50;;
67904;SDS011;54709;43.614;1.576;2023-04-23T00:02:45;17.40;;;12.82;;
67904;SDS011;54709;43.614;1.576;2023-04-23T00:05:13;15.40;;;11.73;;
67904;SDS011;54709;43.614;1.576;2023-04-23T00:07:40;14.60;;;11.95;;
67904;SDS011;54709;43.614;1.576;2023-04-23T00:10:06;14.85;;;10.77;;
67904;SDS011;54709;43.614;1.576;2023-04-23T00:12:33;14.20;;;10.18;;
67904;SDS011;54709;43.614;1.576;2023-04-23T00:14:59;14.93;;;11.40;;
67904;SDS011;54709;43.614;1.576;2023-04-23T00:17:25;13.55;;;11.27;;
67904;SDS011;54709;43.614;1.576;2023-04-23T00:19:50;12.38;;;10.82;;
67904;SDS011;54709;43.614;1.576;2023-04-23T00:22:16;15.73;;;11.45;;
67904;SDS011;54709;43.614;1.576;2023-04-23T00:24:41;13.18;;;10.77;;
67904;SDS011;54709;43.614;1.576;2023-04-23T00:27:07;15.45;;;11.65;;
67904;SDS011;54709;43.614;1.576;2023-04-23T00:29:33;15.48;;;11.63;;
67904;SDS011;54709;43.614;1.576;2023-04-23T00:31:58;19.02;;;14.23;;
67904;SDS011;54709;43.614;1.576;2023-04-23T00:34:24;17.25;;;13.57;;
67904;SDS011;54709;43.614;1.576;2023-04-23T00:36:50;15.95;;;12.18;;
67904;SDS011;54709;43.614;1.576;2023-04-23T00:39:15;17.75;;;12.40;;
67904;SDS011;54709;43.614;1.576;2023-04-23T00:41:41;15.27;;;11.23;;
67904;SDS011;54709;43.614;1.576;2023-04-23T00:44:06;14.50;;;10.98;;
67904;SDS011;54709;43.614;1.576;2023-04-23T00:46:33;14.27;;;9.88;;
67904;SDS011;54709;43.614;1.576;2023-04-23T00:48:59;11.75;;;9.88;;
67904;SDS011;54709;43.614;1.576;2023-04-23T00:51:25;12.07;;;9.35;;
67904;SDS011;54709;43.614;1.576;2023-04-23T00:53:52;12.57;;;9.88;;
67904;SDS011;54709;43.614;1.576;2023-04-23T00:56:17;12.02;;;9.13;;
67904;SDS011;54709;43.614;1.576;2023-04-23T00:58:43;10.90;;;8.77;;
67904;SDS011;54709;43.614;1.576;2023-04-23T01:01:09;13.13;;;9.30;;
67904;SDS011;54709;43.614;1.576;2023-04-23T01:03:35;10.40;;;8.25;;
67904;SDS011;54709;43.614;1.576;2023-04-23T01:06:01;9.85;;;7.95;;
67904;SDS011;54709;43.614;1.576;2023-04-23T01:08:27;10.15;;;8.38;;
67904;SDS011;54709;43.614;1.576;2023-04-23T01:10:54;10.15;;;8.25;;
67904;SDS011;54709;43.614;1.576;2023-04-23T01:13:19;8.55;;;7.65;;
67904;SDS011;54709;43.614;1.576;2023-04-23T01:15:46;10.65;;;8.07;;
67904;SDS011;54709;43.614;1.576;2023-04-23T01:18:13;9.30;;;7.47;;
67904;SDS011;54709;43.614;1.576;2023-04-23T01:20:38;9.40;;;8.32;;
67904;SDS011;54709;43.614;1.576;2023-04-23T01:23:04;8.57;;;7.35;;
67904;SDS011;54709;43.614;1.576;2023-04-23T01:25:29;10.90;;;7.65;;
67904;SDS011;54709;43.614;1.576;2023-04-23T01:27:55;9.32;;;7.80;;
67904;SDS011;54709;43.614;1.576;2023-04-23T01:30:22;10.55;;;7.70;;
67904;SDS011;54709;43.614;1.576;2023-04-23T01:32:49;11.57;;;8.10;;
67904;SDS011;54709;43.614;1.576;2023-04-23T01:35:14;10.13;;;7.53;;
67904;SDS011;54709;43.614;1.576;2023-04-23T01:37:40;11.00;;;7.95;;
67904;SDS011;54709;43.614;1.576;2023-04-23T01:40:06;9.60;;;7.32;;
67904;SDS011;54709;43.614;1.576;2023-04-23T01:42:32;9.60;;;7.45;;
67904;SDS011;54709;43.614;1.576;2023-04-23T01:44:58;8.70;;;6.88;;
67904;SDS011;54709;43.614;1.576;2023-04-23T01:47:23;9.02;;;7.05;;
67904;SDS011;54709;43.614;1.576;2023-04-23T01:49:49;7.32;;;6.22;;
67904;SDS011;54709;43.614;1.576;2023-04-23T01:52:14;9.20;;;6.50;;
67904;SDS011;54709;43.614;1.576;2023-04-23T01:54:40;8.73;;;6.18;;
67904;SDS011;54709;43.614;1.576;2023-04-23T01:57:05;7.43;;;6.03;;
67904;SDS011;54709;43.614;1.576;2023-04-23T01:59:30;9.10;;;5.75;;
67904;SDS011;54709;43.614;1.576;2023-04-23T02:01:56;6.43;;;5.45;;
67904;SDS011;54709;43.614;1.576;2023-04-23T02:04:21;6.13;;;4.72;;
67904;SDS011;54709;43.614;1.576;2023-04-23T02:06:48;5.88;;;4.80;;
67904;SDS011;54709;43.614;1.576;2023-04-23T02:09:14;6.15;;;4.38;;
67904;SDS011;54709;43.614;1.576;2023-04-23T02:11:40;5.35;;;4.85;;
67904;SDS011;54709;43.614;1.576;2023-04-23T02:14:05;5.20;;;4.32;;
67904;SDS011;54709;43.614;1.576;2023-04-23T02:16:31;6.65;;;4.68;;
67904;SDS011;54709;43.614;1.576;2023-04-23T02:18:58;5.05;;;4.30;;
67904;SDS011;54709;43.614;1.576;2023-04-23T02:21:24;4.03;;;3.63;;
67904;SDS011;54709;43.614;1.576;2023-04-23T02:23:51;5.25;;;4.00;;
67904;SDS011;54709;43.614;1.576;2023-04-23T02:26:16;4.68;;;3.97;;
67904;SDS011;54709;43.614;1.576;2023-04-23T02:28:42;5.05;;;4.00;;
67904;SDS011;54709;43.614;1.576;2023-04-23T02:31:08;4.75;;;3.60;;
67904;SDS011;54709;43.614;1.576;2023-04-23T02:33:34;4.65;;;3.55;;
67904;SDS011;54709;43.614;1.576;2023-04-23T02:35:59;3.70;;;3.20;;
67904;SDS011;54709;43.614;1.576;2023-04-23T02:38:25;4.90;;;3.80;;
67904;SDS011;54709;43.614;1.576;2023-04-23T02:40:50;3.88;;;3.50;;
67904;SDS011;54709;43.614;1.576;2023-04-23T02:43:15;4.10;;;3.70;;
67904;SDS011;54709;43.614;1.576;2023-04-23T02:45:42;4.10;;;3.70;;
67904;SDS011;54709;43.614;1.576;2023-04-23T02:48:08;6.75;;;3.70;;
67904;SDS011;54709;43.614;1.576;2023-04-23T02:50:34;3.85;;;3.30;;
67904;SDS011;54709;43.614;1.576;2023-04-23T02:52:59;4.10;;;3.33;;
67904;SDS011;54709;43.614;1.576;2023-04-23T02:55:25;3.80;;;3.25;;
67904;SDS011;54709;43.614;1.576;2023-04-23T02:57:55;4.53;;;3.53;;
67904;SDS011;54709;43.614;1.576;2023-04-23T03:00:21;3.92;;;3.53;;
67904;SDS011;54709;43.614;1.576;2023-04-23T03:02:46;5.40;;;3.83;;
67904;SDS011;54709;43.614;1.576;2023-04-23T03:05:12;6.18;;;4.13;;
67904;SDS011;54709;43.614;1.576;2023-04-23T03:07:37;4.25;;;3.67;;
67904;SDS011;54709;43.614;1.576;2023-04-23T03:10:03;4.05;;;3.65;;
67904;SDS011;54709;43.614;1.576;2023-04-23T03:12:29;6.40;;;4.22;;
67904;SDS011;54709;43.614;1.576;2023-04-23T03:14:55;4.68;;;3.53;;
67904;SDS011;54709;43.614;1.576;2023-04-23T03:17:20;4.13;;;3.72;;
67904;SDS011;54709;43.614;1.576;2023-04-23T03:19:45;4.53;;;3.75;;
67904;SDS011;54709;43.614;1.576;2023-04-23T03:22:11;4.00;;;3.58;;
67904;SDS011;54709;43.614;1.576;2023-04-23T03:24:36;3.55;;;3.25;;
67904;SDS011;54709;43.614;1.576;2023-04-23T03:27:01;4.15;;;3.45;;
67904;SDS011;54709;43.614;1.576;2023-04-23T03:29:27;3.22;;;2.92;;
67904;SDS011;54709;43.614;1.576;2023-04-23T03:31:52;3.05;;;2.75;;
67904;SDS011;54709;43.614;1.576;2023-04-23T03:34:18;5.03;;;3.20;;
67904;SDS011;54709;43.614;1.576;2023-04-23T03:36:43;5.20;;;3.05;;
67904;SDS011;54709;43.614;1.576;2023-04-23T03:39:10;3.22;;;2.80;;
67904;SDS011;54709;43.614;1.576;2023-04-23T03:41:36;3.70;;;3.08;;
67904;SDS011;54709;43.614;1.576;2023-04-23T03:44:01;3.28;;;2.97;;
67904;SDS011;54709;43.614;1.576;2023-04-23T03:46:26;6.65;;;3.10;;
67904;SDS011;54709;43.614;1.576;2023-04-23T03:48:52;3.83;;;3.45;;
67904;SDS011;54709;43.614;1.576;2023-04-23T03:51:17;5.05;;;3.22;;
67904;SDS011;54709;43.614;1.576;2023-04-23T03:53:43;4.78;;;3.20;;
67904;SDS011;54709;43.614;1.576;2023-04-23T03:56:09;3.55;;;2.90;;
67904;SDS011;54709;43.614;1.576;2023-04-23T03:58:35;4.15;;;3.47;;
67904;SDS011;54709;43.614;1.576;2023-04-23T04:01:00;3.80;;;3.13;;
67904;SDS011;54709;43.614;1.576;2023-04-23T04:03:25;3.90;;;3.50;;
67904;SDS011;54709;43.614;1.576;2023-04-23T04:05:51;4.35;;;3.50;;
67904;SDS011;54709;43.614;1.576;2023-04-23T04:08:16;4.65;;;3.72;;
67904;SDS011;54709;43.614;1.576;2023-04-23T04:10:42;5.00;;;3.78;;
67904;SDS011;54709;43.614;1.576;2023-04-23T04:13:07;4.93;;;4.43;;
67904;SDS011;54709;43.614;1.576;2023-04-23T04:15:34;4.72;;;4.18;;
67904;SDS011;54709;43.614;1.576;2023-04-23T04:17:59;4.70;;;3.92;;
67904;SDS011;54709;43.614;1.576;2023-04-23T04:20:25;5.18;;;4.38;;
67904;SDS011;54709;43.614;1.576;2023-04-23T04:22:52;4.50;;;4.10;;
67904;SDS011;54709;43.614;1.576;2023-04-23T04:25:18;5.13;;;4.40;;
67904;SDS011;54709;43.614;1.576;2023-04-23T04:27:43;8.63;;;4.55;;
67904;SDS011;54709;43.614;1.576;2023-04-23T04:30:09;4.13;;;3.83;;
67904;SDS011;54709;43.614;1.576;2023-04-23T04:32:35;5.28;;;4.38;;
67904;SDS011;54709;43.614;1.576;2023-04-23T04:35:02;4.78;;;4.20;;
67904;SDS011;54709;43.614;1.576;2023-04-23T04:37:29;5.93;;;4.68;;
67904;SDS011;54709;43.614;1.576;2023-04-23T04:39:56;4.95;;;4.50;;
67904;SDS011;54709;43.614;1.576;2023-04-23T04:42:21;4.55;;;4.13;;
67904;SDS011;54709;43.614;1.576;2023-04-23T04:44:46;5.57;;;4.80;;
67904;SDS011;54709;43.614;1.576;2023-04-23T04:47:12;5.25;;;4.40;;
67904;SDS011;54709;43.614;1.576;2023-04-23T04:49:37;7.18;;;4.90;;
67904;SDS011;54709;43.614;1.576;2023-04-23T04:52:03;5.60;;;4.45;;
67904;SDS011;54709;43.614;1.576;2023-04-23T04:54:28;5.25;;;4.57;;
67904;SDS011;54709;43.614;1.576;2023-04-23T04:56:53;5.10;;;4.50;;
67904;SDS011;54709;43.614;1.576;2023-04-23T04:59:19;4.90;;;4.10;;
67904;SDS011;54709;43.614;1.576;2023-04-23T05:01:44;4.88;;;4.00;;
67904;SDS011;54709;43.614;1.576;2023-04-23T05:04:10;4.13;;;3.67;;
67904;SDS011;54709;43.614;1.576;2023-04-23T05:06:35;4.95;;;4.07;;
67904;SDS011;54709;43.614;1.576;2023-04-23T05:09:00;5.43;;;4.07;;
67904;SDS011;54709;43.614;1.576;2023-04-23T05:11:26;4.20;;;3.75;;
67904;SDS011;54709;43.614;1.576;2023-04-23T05:13:51;5.10;;;4.00;;
67904;SDS011;54709;43.614;1.576;2023-04-23T05:16:17;4.45;;;4.00;;
67904;SDS011;54709;43.614;1.576;2023-04-23T05:18:42;6.07;;;3.63;;
67904;SDS011;54709;43.614;1.576;2023-04-23T05:21:08;6.63;;;4.10;;
67904;SDS011;54709;43.614;1.576;2023-04-23T05:23:33;5.63;;;4.47;;
67904;SDS011;54709;43.614;1.576;2023-04-23T05:25:59;4.97;;;4.40;;
67904;SDS011;54709;43.614;1.576;2023-04-23T05:28:27;6.68;;;4.72;;
67904;SDS011;54709;43.614;1.576;2023-04-23T05:30:53;4.30;;;3.83;;
67904;SDS011;54709;43.614;1.576;2023-04-23T05:33:18;6.25;;;4.53;;
67904;SDS011;54709;43.614;1.576;2023-04-23T05:35:44;5.95;;;4.70;;
67904;SDS011;54709;43.614;1.576;2023-04-23T05:38:09;5.88;;;4.22;;
67904;SDS011;54709;43.614;1.576;2023-04-23T05:40:35;6.72;;;5.15;;
67904;SDS011;54709;43.614;1.576;2023-04-23T05:43:01;7.80;;;4.85;;
67904;SDS011;54709;43.614;1.576;2023-04-23T05:45:26;4.53;;;4.10;;
67904;SDS011;54709;43.614;1.576;2023-04-23T05:47:52;5.15;;;3.80;;
67904;SDS011;54709;43.614;1.576;2023-04-23T05:50:17;4.22;;;3.25;;
67904;SDS011;54709;43.614;1.576;2023-04-23T05:52:43;5.05;;;3.28;;
67904;SDS011;54709;43.614;1.576;2023-04-23T05:55:08;5.97;;;3.65;;
67904;SDS011;54709;43.614;1.576;2023-04-23T05:57:37;3.97;;;3.35;;
67904;SDS011;54709;43.614;1.576;2023-04-23T06:00:03;4.07;;;3.20;;
67904;SDS011;54709;43.614;1.576;2023-04-23T06:02:30;3.88;;;3.30;;
67904;SDS011;54709;43.614;1.576;2023-04-23T06:04:55;6.88;;;3.40;;
67904;SDS011;54709;43.614;1.576;2023-04-23T06:07:20;3.03;;;2.72;;
67904;SDS011;54709;43.614;1.576;2023-04-23T06:09:46;4.70;;;2.70;;
67904;SDS011;54709;43.614;1.576;2023-04-23T06:12:11;3.33;;;2.50;;
67904;SDS011;54709;43.614;1.576;2023-04-23T06:14:37;2.85;;;2.45;;
67904;SDS011;54709;43.614;1.576;2023-04-23T06:17:02;3.67;;;2.42;;
67904;SDS011;54709;43.614;1.576;2023-04-23T06:19:27;4.32;;;2.20;;
67904;SDS011;54709;43.614;1.576;2023-04-23T06:21:53;3.67;;;1.95;;
67904;SDS011;54709;43.614;1.576;2023-04-23T06:24:18;2.20;;;1.88;;
67904;SDS011;54709;43.614;1.576;2023-04-23T06:26:44;1.80;;;1.70;;
67904;SDS011;54709;43.614;1.576;2023-04-23T06:29:10;1.73;;;1.45;;
67904;SDS011;54709;43.614;1.576;2023-04-23T06:31:35;1.48;;;1.38;;
67904;SDS011;54709;43.614;1.576;2023-04-23T06:34:00;2.15;;;1.30;;
67904;SDS011;54709;43.614;1.576;2023-04-23T06:36:26;2.15;;;1.40;;
67904;SDS011;54709;43.614;1.576;2023-04-23T06:38:51;2.33;;;1.30;;
67904;SDS011;54709;43.614;1.576;2023-04-23T06:41:17;1.50;;;1.40;;
67904;SDS011;54709;43.614;1.576;2023-04-23T06:43:42;1.30;;;1.20;;
67904;SDS011;54709;43.614;1.576;2023-04-23T06:46:07;1.35;;;1.00;;
67904;SDS011;54709;43.614;1.576;2023-04-23T06:48:33;1.27;;;1.00;;
67904;SDS011;54709;43.614;1.576;2023-04-23T06:50:59;1.30;;;0.93;;
67904;SDS011;54709;43.614;1.576;2023-04-23T06:53:24;1.55;;;1.45;;
67904;SDS011;54709;43.614;1.576;2023-04-23T06:55:49;1.48;;;1.35;;
67904;SDS011;54709;43.614;1.576;2023-04-23T06:58:15;1.30;;;1.20;;
67904;SDS011;54709;43.614;1.576;2023-04-23T07:00:43;1.20;;;1.10;;
67904;SDS011;54709;43.614;1.576;2023-04-23T07:03:09;2.67;;;1.20;;
67904;SDS011;54709;43.614;1.576;2023-04-23T07:05:35;2.67;;;1.20;;
67904;SDS011;54709;43.614;1.576;2023-04-23T07:08:00;1.30;;;1.20;;
67904;SDS011;54709;43.614;1.576;2023-04-23T07:10:26;2.67;;;1.10;;
67904;SDS011;54709;43.614;1.576;2023-04-23T07:12:51;1.30;;;1.20;;
67904;SDS011;54709;43.614;1.576;2023-04-23T07:15:16;2.35;;;1.00;;
67904;SDS011;54709;43.614;1.576;2023-04-23T07:17:42;1.13;;;1.02;;
67904;SDS011;54709;43.614;1.576;2023-04-23T07:20:07;2.85;;;0.90;;
67904;SDS011;54709;43.614;1.576;2023-04-23T07:22:33;0.80;;;0.80;;
67904;SDS011;54709;43.614;1.576;2023-04-23T07:24:59;3.30;;;0.85;;
67904;SDS011;54709;43.614;1.576;2023-04-23T07:27:25;1.85;;;0.75;;
67904;SDS011;54709;43.614;1.576;2023-04-23T07:29:50;1.05;;;0.70;;
67904;SDS011;54709;43.614;1.576;2023-04-23T07:32:16;0.70;;;0.70;;
67904;SDS011;54709;43.614;1.576;2023-04-23T07:34:41;1.13;;;0.65;;
67904;SDS011;54709;43.614;1.576;2023-04-23T07:37:07;1.77;;;0.60;;
67904;SDS011;54709;43.614;1.576;2023-04-23T07:39:32;0.73;;;0.70;;
67904;SDS011;54709;43.614;1.576;2023-04-23T07:41:58;1.20;;;0.90;;
67904;SDS011;54709;43.614;1.576;2023-04-23T07:44:23;1.25;;;0.70;;
67904;SDS011;54709;43.614;1.576;2023-04-23T07:46:49;0.90;;;0.90;;
67904;SDS011;54709;43.614;1.576;2023-04-23T07:49:15;2.33;;;0.82;;
67904;SDS011;54709;43.614;1.576;2023-04-23T07:51:40;0.93;;;0.70;;
67904;SDS011;54709;43.614;1.576;2023-04-23T07:54:06;1.00;;;0.80;;
67904;SDS011;54709;43.614;1.576;2023-04-23T07:56:32;0.98;;;0.60;;
67904;SDS011;54709;43.614;1.576;2023-04-23T07:58:58;1.05;;;0.82;;
67904;SDS011;54709;43.614;1.576;2023-04-23T08:01:24;0.70;;;0.70;;
67904;SDS011;54709;43.614;1.576;2023-04-23T08:03:49;0.70;;;0.70;;
67904;SDS011;54709;43.614;1.576;2023-04-23T08:06:15;1.70;;;0.68;;
67904;SDS011;54709;43.614;1.576;2023-04-23T08:08:42;1.00;;;0.70;;
67904;SDS011;54709;43.614;1.576;2023-04-23T08:11:07;1.15;;;0.60;;
67904;SDS011;54709;43.614;1.576;2023-04-23T08:13:33;0.40;;;0.40;;
67904;SDS011;54709;43.614;1.576;2023-04-23T08:15:58;1.48;;;0.57;;
67904;SDS011;54709;43.614;1.576;2023-04-23T08:18:23;0.45;;;0.40;;
67904;SDS011;54709;43.614;1.576;2023-04-23T08:20:49;0.45;;;0.45;;
67904;SDS011;54709;43.614;1.576;2023-04-23T08:23:15;0.45;;;0.45;;
67904;SDS011;54709;43.614;1.576;2023-04-23T08:25:40;1.75;;;0.50;;
67904;SDS011;54709;43.614;1.576;2023-04-23T08:28:05;0.95;;;0.47;;
67904;SDS011;54709;43.614;1.576;2023-04-23T08:30:31;0.60;;;0.32;;
67904;SDS011;54709;43.614;1.576;2023-04-23T08:32:56;0.47;;;0.47;;
67904;SDS011;54709;43.614;1.576;2023-04-23T08:35:22;0.60;;;0.30;;
67904;SDS011;54709;43.614;1.576;2023-04-23T08:37:48;1.15;;;0.50;;
67904;SDS011;54709;43.614;1.576;2023-04-23T08:40:13;2.88;;;0.52;;
67904;SDS011;54709;43.614;1.576;2023-04-23T08:45:09;3.55;;;0.60;;
67904;SDS011;54709;43.614;1.576;2023-04-23T08:47:35;0.85;;;0.60;;
67904;SDS011;54709;43.614;1.576;2023-04-23T08:50:06;0.55;;;0.50;;
67904;SDS011;54709;43.614;1.576;2023-04-23T08:52:34;1.00;;;0.50;;
67904;SDS011;54709;43.614;1.576;2023-04-23T08:55:03;0.65;;;0.50;;
67904;SDS011;54709;43.614;1.576;2023-04-23T08:57:29;1.23;;;0.60;;
67904;SDS011;54709;43.614;1.576;2023-04-23T08:59:55;1.02;;;0.73;;
67904;SDS011;54709;43.614;1.576;2023-04-23T09:02:21;1.02;;;0.60;;
67904;SDS011;54709;43.614;1.576;2023-04-23T09:04:46;1.75;;;0.60;;
67904;SDS011;54709;43.614;1.576;2023-04-23T09:07:12;0.95;;;0.60;;
67904;SDS011;54709;43.614;1.576;2023-04-23T09:09:39;3.78;;;0.60;;
67904;SDS011;54709;43.614;1.576;2023-04-23T09:12:05;3.83;;;0.60;;
67904;SDS011;54709;43.614;1.576;2023-04-23T09:14:32;0.90;;;0.68;;
67904;SDS011;54709;43.614;1.576;2023-04-23T09:16:58;0.70;;;0.60;;
67904;SDS011;54709;43.614;1.576;2023-04-23T09:19:24;1.35;;;0.70;;
67904;SDS011;54709;43.614;1.576;2023-04-23T09:21:51;0.85;;;0.60;;
67904;SDS011;54709;43.614;1.576;2023-04-23T09:24:17;5.20;;;0.80;;
67904;SDS011;54709;43.614;1.576;2023-04-23T09:26:43;0.60;;;0.60;;
67904;SDS011;54709;43.614;1.576;2023-04-23T09:29:14;1.80;;;0.60;;
67904;SDS011;54709;43.614;1.576;2023-04-23T09:31:46;0.57;;;0.50;;
67904;SDS011;54709;43.614;1.576;2023-04-23T09:34:22;1.10;;;0.68;;
67904;SDS011;54709;43.614;1.576;2023-04-23T09:36:49;3.53;;;0.70;;
67904;SDS011;54709;43.614;1.576;2023-04-23T09:39:21;3.63;;;1.15;;
67904;SDS011;54709;43.614;1.576;2023-04-23T09:41:47;0.80;;;0.63;;
67904;SDS011;54709;43.614;1.576;2023-04-23T09:44:19;2.47;;;0.70;;
67904;SDS011;54709;43.614;1.576;2023-04-23T09:46:50;2.05;;;0.63;;
67904;SDS011;54709;43.614;1.576;2023-04-23T09:49:15;1.30;;;0.80;;
67904;SDS011;54709;43.614;1.576;2023-04-23T09:51:42;1.95;;;1.10;;
67904;SDS011;54709;43.614;1.576;2023-04-23T09:54:13;2.92;;;0.80;;
67904;SDS011;54709;43.614;1.576;2023-04-23T09:56:40;2.03;;;0.85;;
67904;SDS011;54709;43.614;1.576;2023-04-23T09:59:21;1.20;;;0.70;;
67904;SDS011;54709;43.614;1.576;2023-04-23T10:01:47;1.35;;;0.70;;
67904;SDS011;54709;43.614;1.576;2023-04-23T10:04:19;1.23;;;0.70;;
67904;SDS011;54709;43.614;1.576;2023-04-23T10:06:56;1.20;;;0.60;;
67904;SDS011;54709;43.614;1.576;2023-04-23T10:09:22;1.10;;;0.77;;
67904;SDS011;54709;43.614;1.576;2023-04-23T10:11:59;1.08;;;0.90;;
67904;SDS011;54709;43.614;1.576;2023-04-23T10:14:26;0.95;;;0.60;;
67904;SDS011;54709;43.614;1.576;2023-04-23T10:16:56;1.02;;;0.70;;
67904;SDS011;54709;43.614;1.576;2023-04-23T10:19:23;2.65;;;0.73;;
67904;SDS011;54709;43.614;1.576;2023-04-23T10:21:52;2.28;;;0.80;;
67904;SDS011;54709;43.614;1.576;2023-04-23T10:24:24;1.90;;;1.00;;
67904;SDS011;54709;43.614;1.576;2023-04-23T10:26:58;2.25;;;0.60;;
67904;SDS011;54709;43.614;1.576;2023-04-23T10:29:34;2.30;;;1.00;;
67904;SDS011;54709;43.614;1.576;2023-04-23T10:32:01;0.82;;;0.68;;
67904;SDS011;54709;43.614;1.576;2023-04-23T10:34:28;1.77;;;0.98;;
67904;SDS011;54709;43.614;1.576;2023-04-23T10:36:55;1.15;;;0.90;;
67904;SDS011;54709;43.614;1.576;2023-04-23T10:39:21;2.72;;;0.82;;
67904;SDS011;54709;43.614;1.576;2023-04-23T10:41:48;0.77;;;0.70;;
67904;SDS011;54709;43.614;1.576;2023-04-23T10:44:14;1.92;;;0.90;;
67904;SDS011;54709;43.614;1.576;2023-04-23T10:46:52;1.75;;;0.80;;
67904;SDS011;54709;43.614;1.576;2023-04-23T10:49:19;1.13;;;0.70;;
67904;SDS011;54709;43.614;1.576;2023-04-23T10:51:46;1.30;;;0.88;;
67904;SDS011;54709;43.614;1.576;2023-04-23T10:54:15;2.35;;;0.80;;
67904;SDS011;54709;43.614;1.576;2023-04-23T10:56:42;1.05;;;0.70;;
67904;SDS011;54709;43.614;1.576;2023-04-23T10:59:17;3.17;;;1.00;;
67904;SDS011;54709;43.614;1.576;2023-04-23T11:01:48;1.52;;;0.70;;
67904;SDS011;54709;43.614;1.576;2023-04-23T11:04:21;1.77;;;0.90;;
67904;SDS011;54709;43.614;1.576;2023-04-23T11:06:51;4.43;;;0.98;;
67904;SDS011;54709;43.614;1.576;2023-04-23T11:17:23;3.13;;;0.70;;
67904;SDS011;54709;43.614;1.576;2023-04-23T11:22:43;3.40;;;1.33;;
67904;SDS011;54709;43.614;1.576;2023-04-23T11:27:39;2.53;;;1.20;;
67904;SDS011;54709;43.614;1.576;2023-04-23T11:30:09;1.75;;;0.90;;
67904;SDS011;54709;43.614;1.576;2023-04-23T11:32:40;1.52;;;0.90;;
67904;SDS011;54709;43.614;1.576;2023-04-23T11:35:06;4.38;;;1.10;;
67904;SDS011;54709;43.614;1.576;2023-04-23T11:37:37;3.33;;;1.13;;
67904;SDS011;54709;43.614;1.576;2023-04-23T11:40:09;3.78;;;1.13;;
67904;SDS011;54709;43.614;1.576;2023-04-23T11:42:41;3.38;;;0.98;;
67904;SDS011;54709;43.614;1.576;2023-04-23T11:45:34;2.35;;;1.15;;
67904;SDS011;54709;43.614;1.576;2023-04-23T11:47:59;3.75;;;1.23;;
67904;SDS011;54709;43.614;1.576;2023-04-23T11:50:26;6.32;;;1.40;;
67904;SDS011;54709;43.614;1.576;2023-04-23T11:52:53;3.97;;;1.23;;
67904;SDS011;54709;43.614;1.576;2023-04-23T11:55:19;3.10;;;1.30;;
67904;SDS011;54709;43.614;1.576;2023-04-23T11:57:46;6.82;;;1.20;;
67904;SDS011;54709;43.614;1.576;2023-04-23T12:02:48;7.15;;;1.40;;
67904;SDS011;54709;43.614;1.576;2023-04-23T12:05:20;7.38;;;1.17;;
67904;SDS011;54709;43.614;1.576;2023-04-23T12:07:50;4.72;;;1.33;;
67904;SDS011;54709;43.614;1.576;2023-04-23T12:10:25;3.38;;;1.10;;
67904;SDS011;54709;43.614;1.576;2023-04-23T12:12:50;3.35;;;1.00;;
67904;SDS011;54709;43.614;1.576;2023-04-23T12:15:16;7.53;;;1.10;;
67904;SDS011;54709;43.614;1.576;2023-04-23T12:17:42;5.38;;;1.75;;
67904;SDS011;54709;43.614;1.576;2023-04-23T12:20:15;2.60;;;1.30;;
67904;SDS011;54709;43.614;1.576;2023-04-23T12:22:50;4.15;;;1.15;;
67904;SDS011;54709;43.614;1.576;2023-04-23T12:25:15;6.70;;;1.48;;
67904;SDS011;54709;43.614;1.576;2023-04-23T12:27:42;7.30;;;1.40;;
67904;SDS011;54709;43.614;1.576;2023-04-23T12:30:08;2.53;;;1.10;;
67904;SDS011;54709;43.614;1.576;2023-04-23T12:32:36;4.28;;;1.20;;
67904;SDS011;54709;43.614;1.576;2023-04-23T12:35:01;3.05;;;1.15;;
67904;SDS011;54709;43.614;1.576;2023-04-23T12:37:30;3.22;;;1.20;;
67904;SDS011;54709;43.614;1.576;2023-04-23T12:39:59;3.10;;;1.10;;
67904;SDS011;54709;43.614;1.576;2023-04-23T12:42:25;2.47;;;1.35;;
67904;SDS011;54709;43.614;1.576;2023-04-23T12:44:50;2.03;;;0.90;;
67904;SDS011;54709;43.614;1.576;2023-04-23T12:47:16;3.45;;;1.17;;
67904;SDS011;54709;43.614;1.576;2023-04-23T12:49:44;8.27;;;1.00;;
67904;SDS011;54709;43.614;1.576;2023-04-23T12:52:10;4.03;;;1.00;;
67904;SDS011;54709;43.614;1.576;2023-04-23T12:54:36;3.30;;;1.10;;
67904;SDS011;54709;43.614;1.576;2023-04-23T12:57:03;1.80;;;1.00;;
67904;SDS011;54709;43.614;1.576;2023-04-23T12:59:30;1.95;;;0.90;;
67904;SDS011;54709;43.614;1.576;2023-04-23T13:01:56;4.72;;;2.45;;
67904;SDS011;54709;43.614;1.576;2023-04-23T13:04:25;2.80;;;1.20;;
67904;SDS011;54709;43.614;1.576;2023-04-23T13:06:51;7.03;;;3.00;;
67904;SDS011;54709;43.614;1.576;2023-04-23T13:09:16;6.35;;;3.50;;
67904;SDS011;54709;43.614;1.576;2023-04-23T13:11:42;3.35;;;1.70;;
67904;SDS011;54709;43.614;1.576;2023-04-23T13:14:08;5.35;;;1.95;;
67904;SDS011;54709;43.614;1.576;2023-04-23T13:16:33;4.05;;;2.50;;
67904;SDS011;54709;43.614;1.576;2023-04-23T13:18:59;3.88;;;1.38;;
67904;SDS011;54709;43.614;1.576;2023-04-23T13:21:24;2.17;;;1.00;;
67904;SDS011;54709;43.614;1.576;2023-04-23T13:23:50;9.10;;;5.22;;
67904;SDS011;54709;43.614;1.576;2023-04-23T13:26:16;10.15;;;5.18;;
67904;SDS011;54709;43.614;1.576;2023-04-23T13:28:41;7.72;;;4.20;;
67904;SDS011;54709;43.614;1.576;2023-04-23T13:31:07;6.38;;;3.22;;
67904;SDS011;54709;43.614;1.576;2023-04-23T13:33:32;3.58;;;1.42;;
67904;SDS011;54709;43.614;1.576;2023-04-23T13:35:59;4.25;;;2.15;;
67904;SDS011;54709;43.614;1.576;2023-04-23T13:38:25;8.60;;;3.75;;
67904;SDS011;54709;43.614;1.576;2023-04-23T13:40:51;7.53;;;3.40;;
67904;SDS011;54709;43.614;1.576;2023-04-23T13:43:16;3.85;;;1.73;;
67904;SDS011;54709;43.614;1.576;2023-04-23T13:45:42;6.50;;;3.33;;
67904;SDS011;54709;43.614;1.576;2023-04-23T13:48:08;7.78;;;4.32;;
67904;SDS011;54709;43.614;1.576;2023-04-23T13:50:33;7.43;;;3.15;;
67904;SDS011;54709;43.614;1.576;2023-04-23T13:52:59;3.63;;;2.10;;
67904;SDS011;54709;43.614;1.576;2023-04-23T13:55:24;3.40;;;1.27;;
67904;SDS011;54709;43.614;1.576;2023-04-23T13:57:50;2.92;;;1.50;;
67904;SDS011;54709;43.614;1.576;2023-04-23T14:00:15;3.03;;;1.30;;
67904;SDS011;54709;43.614;1.576;2023-04-23T14:02:41;3.88;;;1.40;;
67904;SDS011;54709;43.614;1.576;2023-04-23T14:05:07;3.80;;;1.20;;
67904;SDS011;54709;43.614;1.576;2023-04-23T14:07:33;2.90;;;0.95;;
67904;SDS011;54709;43.614;1.576;2023-04-23T14:09:59;2.97;;;1.20;;
67904;SDS011;54709;43.614;1.576;2023-04-23T14:12:25;5.75;;;1.15;;
67904;SDS011;54709;43.614;1.576;2023-04-23T14:14:52;2.92;;;1.10;;
67904;SDS011;54709;43.614;1.576;2023-04-23T14:17:18;2.40;;;1.00;;
67904;SDS011;54709;43.614;1.576;2023-04-23T14:19:43;3.42;;;1.20;;
67904;SDS011;54709;43.614;1.576;2023-04-23T14:22:09;5.25;;;1.08;;
67904;SDS011;54709;43.614;1.576;2023-04-23T14:24:37;9.27;;;1.60;;
67904;SDS011;54709;43.614;1.576;2023-04-23T14:27:03;2.70;;;1.60;;
67904;SDS011;54709;43.614;1.576;2023-04-23T14:29:30;2.95;;;1.05;;
67904;SDS011;54709;43.614;1.576;2023-04-23T14:31:59;1.35;;;0.95;;
67904;SDS011;54709;43.614;1.576;2023-04-23T14:34:25;2.88;;;0.90;;
67904;SDS011;54709;43.614;1.576;2023-04-23T14:36:51;2.38;;;1.20;;
67904;SDS011;54709;43.614;1.576;2023-04-23T14:39:17;2.90;;;1.10;;
67904;SDS011;54709;43.614;1.576;2023-04-23T14:41:43;4.03;;;0.90;;
67904;SDS011;54709;43.614;1.576;2023-04-23T14:44:08;3.17;;;1.10;;
67904;SDS011;54709;43.614;1.576;2023-04-23T14:46:34;1.45;;;0.90;;
67904;SDS011;54709;43.614;1.576;2023-04-23T14:48:59;2.63;;;1.10;;
67904;SDS011;54709;43.614;1.576;2023-04-23T14:51:24;3.22;;;1.15;;
67904;SDS011;54709;43.614;1.576;2023-04-23T14:53:51;3.15;;;1.10;;
67904;SDS011;54709;43.614;1.576;2023-04-23T14:56:17;6.50;;;1.38;;
67904;SDS011;54709;43.614;1.576;2023-04-23T14:58:42;4.55;;;1.60;;